Time;durP1;ratioP1;P1;durP2;ratioP2;P2;SDS_P1;SDS_P2;PMS_P1;PMS_P2;Temp;Humidity;BMP_temperature;BMP_pressure;BME280_temperature;BME280_humidity;BME280_pressure;Samples;Min_cycle;Max_cycle;Signal;HPM_P1;HPM_P2
2021/03/27 00:01:51;;;;;;;72.75;32.05;;;;;;;7.22;54.87;100829.97;5119711;28;20031;-69
2021/03/27 00:04:31;;;;;;;67.90;31.58;;;;;;;7.39;54.95;100861.19;5119699;28;20390;-69
2021/03/27 00:07:29;;;;;;;67.53;31.58;;;;;;;7.03;54.90;100797.09;5120042;28;20039;-68
2021/03/27 00:10:00;;;;;;;62.53;31.30;;;;;;;7.35;55.09;100855.16;5119742;28;20067;-68
2021/03/27 00:12:37;;;;;;;68.80;32.88;;;;;;;7.32;55.08;100849.94;5119325;28;20070;-69
2021/03/27 00:15:19;;;;;;;71.53;31.27;;;;;;;7.29;55.20;100850.06;5121036;28;20036;-68
2021/03/27 00:17:58;;;;;;;76.15;33.72;;;;;;;6.82;55.85;100786.34;5122633;28;20059;-68
2021/03/27 00:20:37;;;;;;;73.53;34.83;;;;;;;7.10;55.92;100856.97;5120993;28;20134;-73
2021/03/27 00:23:14;;;;;;;71.93;33.70;;;;;;;6.93;56.19;100830.19;5120355;28;20035;-70
2021/03/27 00:25:55;;;;;;;68.25;32.28;;;;;;;7.00;56.19;100845.81;5119867;28;20035;-69
2021/03/27 00:28:43;;;;;;;65.40;33.08;;;;;;;6.73;56.99;100830.88;5119405;28;20467;-67
2021/03/27 00:31:14;;;;;;;64.38;32.55;;;;;;;6.75;57.60;100853.78;5117360;28;20031;-67
2021/03/27 00:33:54;;;;;;;68.55;32.95;;;;;;;6.68;56.92;100825.75;5115902;28;20420;-67
2021/03/27 00:36:27;;;;;;;65.88;31.83;;;;;;;6.81;57.31;100850.91;5098150;28;20381;-68
2021/03/27 00:39:09;;;;;;;;;;;;;;;6.72;57.29;100851.22;5098166;28;20046;-68
2021/03/27 00:41:48;;;;;;;60.55;29.05;;;;;;;6.80;57.12;100850.97;5115874;28;19915;-67
2021/03/27 00:44:15;;;;;;;62.38;29.95;;;;;;;6.79;56.91;100854.53;5116233;28;20420;-68
2021/03/27 00:46:44;;;;;;;65.07;31.17;;;;;;;6.73;57.14;100850.31;5097278;28;20118;-67
2021/03/27 00:49:15;;;;;;;62.70;29.88;;;;;;;6.72;57.04;100842.41;5115837;28;20062;-67
2021/03/27 00:51:50;;;;;;;62.63;30.60;;;;;;;6.66;57.54;100848.81;5116141;28;20092;-69
2021/03/27 00:54:21;;;;;;;64.88;29.50;;;;;;;6.77;57.11;100849.31;5115841;28;20175;-69
2021/03/27 00:57:00;;;;;;;68.93;33.05;;;;;;;6.60;56.97;100817.22;5115262;28;20066;-69
2021/03/27 00:59:34;;;;;;;73.15;34.92;;;;;;;6.75;57.20;100847.59;5115957;28;20093;-68
2021/03/27 01:02:02;;;;;;;73.43;34.20;;;;;;;6.54;57.23;100814.75;5115922;28;20032;-68
2021/03/27 01:04:32;;;;;;;76.13;36.33;;;;;;;6.74;57.26;100846.75;5115354;28;20530;-67
2021/03/27 01:07:03;;;;;;;70.70;33.42;;;;;;;6.68;56.91;100812.50;5115558;28;20168;-69
2021/03/27 01:09:44;;;;;;;70.50;33.40;;;;;;;6.80;56.79;100843.03;5115276;28;20378;-70
2021/03/27 01:12:15;;;;;;;75.63;35.40;;;;;;;6.66;57.64;100848.81;5097342;28;20028;-69
2021/03/27 01:14:45;;;;;;;65.13;32.42;;;;;;;6.60;57.67;100846.38;5096910;28;20036;-68
2021/03/27 01:17:16;;;;;;;63.38;30.38;;;;;;;6.43;57.98;100824.88;5115081;28;20058;-69
2021/03/27 01:19:46;;;;;;;61.47;29.30;;;;;;;6.54;57.79;100838.63;5115036;28;20390;-70
2021/03/27 01:22:13;;;;;;;64.63;30.15;;;;;;;6.45;58.21;100847.75;5115597;28;20027;-69
2021/03/27 01:24:39;;;;;;;63.78;31.33;;;;;;;6.31;59.10;100847.34;5114885;28;20088;-70
2021/03/27 01:27:25;;;;;;;65.70;32.22;;;;;;;6.17;59.33;100854.88;5097086;28;20398;-71
2021/03/27 01:30:05;;;;;;;70.38;32.88;;;;;;;6.03;59.88;100847.38;5096414;28;20481;-70
2021/03/27 01:32:47;;;;;;;65.40;32.20;;;;;;;6.09;59.59;100839.25;5096710;28;20031;-69
2021/03/27 01:35:19;;;;;;;66.07;31.00;;;;;;;5.87;59.56;100819.63;5115037;28;20024;-69
2021/03/27 01:38:07;;;;;;;60.50;30.35;;;;;;;5.91;60.12;100847.78;5114580;28;20462;-72
2021/03/27 01:40:47;;;;;;;81.40;35.75;;;;;;;6.22;59.15;100837.91;5114532;28;20039;-70
2021/03/27 01:43:18;;;;;;;81.78;36.28;;;;;;;6.25;58.87;100810.44;5114582;28;20397;-71
2021/03/27 01:46:04;;;;;;;75.32;33.70;;;;;;;6.47;58.50;100842.41;5096570;28;20038;-70
2021/03/27 01:48:38;;;;;;;69.50;31.83;;;;;;;6.50;58.22;100835.22;5085394;28;20036;-69
2021/03/27 01:51:22;;;;;;;65.90;31.55;;;;;;;6.40;58.43;100827.63;5096617;28;20030;-69
2021/03/27 01:53:52;;;;;;;59.30;27.67;;;;;;;6.30;58.13;100804.09;5114482;28;20030;-69
2021/03/27 01:56:31;;;;;;;53.78;27.33;;;;;;;6.42;58.15;100839.03;5114592;28;20070;-70
2021/03/27 01:59:07;;;;;;;54.13;26.70;;;;;;;6.28;58.55;100832.44;5096421;28;20100;-69
2021/03/27 02:02:16;;;;;;;53.28;25.95;;;;;;;6.19;59.11;100831.88;5114188;28;20023;-68
2021/03/27 02:04:52;;;;;;;53.08;25.00;;;;;;;6.26;58.91;100833.38;5064296;28;20031;-68
2021/03/27 02:07:27;;;;;;;59.97;28.55;;;;;;;5.85;58.88;100773.78;5079479;28;20042;-68
2021/03/27 02:10:08;;;;;;;66.28;30.38;;;;;;;6.17;58.95;100823.94;5114011;28;20059;-69
2021/03/27 02:12:51;;;;;;;69.60;33.00;;;;;;;6.06;58.90;100796.94;5114118;28;20066;-69
2021/03/27 02:15:26;;;;;;;62.67;29.33;;;;;;;6.21;58.62;100828.25;5114111;28;20034;-69
2021/03/27 02:17:55;;;;;;;62.67;30.35;;;;;;;5.97;59.10;100813.13;5113951;28;20120;-69
2021/03/27 02:20:58;;;;;;;69.75;32.72;;;;;;;6.07;59.27;100835.75;5114256;28;20031;-69
2021/03/27 02:23:37;;;;;;;73.82;32.70;;;;;;;5.98;59.49;100833.41;5114248;28;20032;-69
2021/03/27 02:26:25;;;;;;;65.28;30.63;;;;;;;5.91;59.74;100843.34;5114229;28;20031;-68
2021/03/27 02:29:00;;;;;;;63.10;29.90;;;;;;;5.61;60.57;100838.97;5100078;28;20036;-69
2021/03/27 02:31:38;;;;;;;58.17;28.08;;;;;;;5.60;60.39;100811.63;5114156;28;20036;-68
2021/03/27 02:34:12;;;;;;;58.50;27.30;;;;;;;5.78;60.29;100838.44;5114076;28;20125;-69
2021/03/27 02:36:44;;;;;;;57.22;27.25;;;;;;;5.85;60.00;100837.34;5113355;28;20031;-68
2021/03/27 02:39:19;;;;;;;54.67;27.33;;;;;;;5.74;59.86;100808.56;5114187;28;20026;-68
2021/03/27 02:42:03;;;;;;;57.63;26.23;;;;;;;5.88;59.92;100832.78;5113436;28;20359;-68
2021/03/27 02:44:28;;;;;;;47.75;23.98;;;;;;;5.85;60.06;100838.19;5095568;28;20063;-69
2021/03/27 02:47:05;;;;;;;50.78;24.65;;;;;;;5.77;60.08;100834.91;5113389;28;20074;-70
2021/03/27 02:49:52;;;;;;;49.92;24.65;;;;;;;5.67;60.39;100826.41;5114267;28;20032;-69
2021/03/27 02:52:36;;;;;;;47.72;23.60;;;;;;;5.63;60.75;100835.34;5113794;28;20055;-69
2021/03/27 02:55:18;;;;;;;41.10;22.85;;;;;;;5.49;60.72;100819.00;5094728;28;20028;-70
2021/03/27 02:58:08;;;;;;;50.22;24.05;;;;;;;5.70;60.64;100844.84;5113399;28;20550;-69
2021/03/27 03:01:06;;;;;;;50.22;24.00;;;;;;;5.59;60.86;100839.00;5113521;28;20118;-74
2021/03/27 03:03:38;;;;;;;53.08;25.98;;;;;;;5.61;61.18;100833.69;5093271;28;20474;-71
2021/03/27 03:06:11;;;;;;;59.67;28.10;;;;;;;5.63;60.88;100840.66;5113693;28;20035;-68
2021/03/27 03:08:47;;;;;;;54.22;26.45;;;;;;;5.65;60.97;100837.94;5113173;28;20039;-68
2021/03/27 03:11:37;;;;;;;53.75;26.67;;;;;;;5.37;61.50;100819.38;5113257;28;20031;-67
2021/03/27 03:14:21;;;;;;;60.63;28.00;;;;;;;5.60;61.19;100830.16;5113104;28;20512;-68
2021/03/27 03:17:04;;;;;;;58.17;26.58;;;;;;;5.66;61.14;100837.03;5112883;28;20036;-67
2021/03/27 03:20:05;;;;;;;57.90;28.33;;;;;;;5.49;62.12;100829.59;5113363;28;20092;-68
2021/03/27 03:22:49;;;;;;;56.55;27.38;;;;;;;5.51;61.78;100837.53;5108755;28;20115;-69
2021/03/27 03:25:21;;;;;;;61.03;28.60;;;;;;;5.31;62.31;100819.59;5113466;28;20028;-69
2021/03/27 03:27:56;;;;;;;63.15;30.25;;;;;;;5.42;62.04;100828.06;5113189;28;20038;-70
2021/03/27 03:30:26;;;;;;;67.45;30.23;;;;;;;5.40;62.01;100817.53;5094968;28;20481;-69
2021/03/27 03:33:16;;;;;;;63.20;27.33;;;;;;;5.50;61.96;100825.16;5112863;28;20028;-70
2021/03/27 03:36:04;;;;;;;64.88;29.10;;;;;;;5.09;61.64;100762.00;5112714;28;20028;-70
2021/03/27 03:39:00;;;;;;;57.67;25.80;;;;;;;5.52;61.52;100828.66;5112537;28;20050;-69
2021/03/27 03:41:38;;;;;;;56.42;28.48;;;;;;;5.36;62.55;100822.94;5112963;28;20024;-68
2021/03/27 03:44:14;;;;;;;62.58;30.35;;;;;;;5.29;61.83;100800.22;5113041;28;20098;-69
2021/03/27 03:47:01;;;;;;;69.85;31.77;;;;;;;5.40;61.93;100830.78;5094528;28;20032;-69
2021/03/27 03:49:31;;;;;;;68.97;32.90;;;;;;;5.25;62.80;100825.06;5094935;28;20046;-69
2021/03/27 03:52:06;;;;;;;75.85;32.22;;;;;;;5.32;62.41;100826.63;5113058;28;20074;-68
2021/03/27 03:55:10;;;;;;;69.85;33.10;;;;;;;5.35;62.18;100831.81;5112986;28;20058;-70
2021/03/27 03:57:57;;;;;;;76.32;33.60;;;;;;;5.37;62.11;100822.03;5090638;28;20119;-70
2021/03/27 04:00:29;;;;;;;81.18;34.88;;;;;;;5.38;62.01;100823.78;5113226;28;20040;-70
2021/03/27 04:03:16;;;;;;;72.20;30.97;;;;;;;5.41;62.03;100826.34;5112733;28;20106;-69
2021/03/27 04:06:11;;;;;;;62.45;27.83;;;;;;;5.30;62.16;100823.13;5112696;28;20035;-68
2021/03/27 04:08:39;;;;;;;61.28;26.80;;;;;;;5.15;62.61;100825.31;5094872;28;20047;-68
2021/03/27 04:11:44;;;;;;;54.70;26.80;;;;;;;5.09;63.00;100819.31;5098629;28;20035;-68
2021/03/27 04:14:37;;;;;;;47.50;24.10;;;;;;;5.18;62.60;100827.88;5116806;28;20127;-67
2021/03/27 04:17:13;;;;;;;52.90;26.03;;;;;;;5.01;63.52;100826.59;5116290;28;20039;-68
2021/03/27 04:20:13;;;;;;;51.20;26.23;;;;;;;4.96;63.84;100824.09;5116555;28;20398;-69
2021/03/27 04:22:45;;;;;;;51.47;25.17;;;;;;;4.82;64.10;100821.81;5116605;28;20034;-69
2021/03/27 04:26:01;;;;;;;56.53;27.15;;;;;;;4.88;63.69;100826.09;5116571;28;20038;-70
2021/03/27 04:28:32;;;;;;;50.83;25.88;;;;;;;5.17;62.65;100819.97;5013922;28;20045;-70
2021/03/27 04:31:09;;;;;;;53.05;26.50;;;;;;;5.16;62.65;100813.81;5013811;28;20432;-69
2021/03/27 04:33:54;;;;;;;57.53;26.23;;;;;;;5.23;62.19;100822.47;5072269;28;20035;-70
2021/03/27 04:36:47;;;;;;;58.08;27.63;;;;;;;5.18;62.64;100825.22;5116289;28;20028;-70
2021/03/27 04:39:30;;;;;;;53.53;25.70;;;;;;;5.33;62.05;100831.84;5068800;28;20047;-70
2021/03/27 04:42:22;;;;;;;57.65;27.20;;;;;;;5.26;62.15;100837.38;5116305;28;20038;-71
2021/03/27 04:44:50;;;;;;;57.78;26.55;;;;;;;5.17;62.29;100836.72;5115000;28;20146;-71
2021/03/27 04:47:44;;;;;;;58.95;26.52;;;;;;;5.13;62.66;100832.44;5116129;28;20371;-70
2021/03/27 04:50:38;;;;;;;58.35;26.40;;;;;;;4.93;62.88;100826.84;5116216;28;20038;-70
2021/03/27 04:53:17;;;;;;;54.67;25.83;;;;;;;4.86;63.23;100834.06;5115643;28;20036;-70
2021/03/27 04:56:01;;;;;;;58.08;26.48;;;;;;;5.02;63.40;100839.81;5115422;28;20552;-75
2021/03/27 04:59:12;;;;;;;56.75;26.88;;;;;;;5.15;62.64;100835.91;5115909;28;20112;-71
2021/03/27 05:01:47;;;;;;;55.17;26.42;;;;;;;5.10;62.55;100821.91;5069592;28;20401;-72
2021/03/27 05:04:21;;;;;;;58.67;27.90;;;;;;;5.24;62.49;100850.63;5115597;28;20095;-68
2021/03/27 05:06:59;;;;;;;54.67;25.45;;;;;;;5.18;62.77;100851.66;5115249;28;20043;-69
2021/03/27 05:09:41;;;;;;;51.85;25.48;;;;;;;5.09;62.67;100836.06;5115986;28;20027;-68
2021/03/27 05:12:41;;;;;;;66.43;28.10;;;;;;;5.25;62.29;100852.38;5115429;28;20034;-67
2021/03/27 05:15:19;;;;;;;53.60;26.65;;;;;;;5.11;62.14;100830.72;5115383;28;20366;-68
2021/03/27 05:17:45;;;;;;;55.10;26.77;;;;;;;5.28;62.98;100861.97;5114449;28;20046;-67
2021/03/27 05:20:24;;;;;;;57.55;28.20;;;;;;;5.38;62.49;100858.16;5115203;28;20050;-68
2021/03/27 05:22:55;;;;;;;62.30;27.70;;;;;;;5.42;62.63;100859.81;5115092;28;20102;-69
2021/03/27 05:25:43;;;;;;;60.28;28.42;;;;;;;5.48;62.26;100862.25;5115136;28;20028;-67
2021/03/27 05:28:29;;;;;;;64.10;29.23;;;;;;;5.48;62.22;100859.63;5114866;28;20028;-67
2021/03/27 05:31:24;;;;;;;61.55;27.75;;;;;;;5.62;61.86;100859.22;5114872;28;20385;-70
2021/03/27 05:34:05;;;;;;;56.08;27.67;;;;;;;5.73;61.47;100855.34;5096420;28;20035;-69
2021/03/27 05:36:39;;;;;;;55.67;27.27;;;;;;;5.43;61.22;100803.34;5115029;28;20031;-69
2021/03/27 05:39:27;;;;;;;54.40;27.45;;;;;;;5.86;60.70;100860.25;5114727;28;20792;-68
2021/03/27 05:42:10;;;;;;;57.92;27.20;;;;;;;5.96;60.54;100859.94;5114638;28;20035;-68
2021/03/27 05:44:47;;;;;;;58.80;28.10;;;;;;;6.08;60.52;100861.34;5115005;28;20131;-70
2021/03/27 05:47:34;;;;;;;54.97;25.77;;;;;;;6.06;60.11;100836.69;5096800;28;20050;-69
2021/03/27 05:50:18;;;;;;;53.75;26.13;;;;;;;6.33;59.93;100856.09;5114486;28;20109;-71
2021/03/27 05:53:11;;;;;;;58.08;26.77;;;;;;;6.43;59.22;100852.22;5114964;28;20036;-69
2021/03/27 05:55:58;;;;;;;63.80;28.00;;;;;;;6.55;58.92;100865.06;5114927;28;20386;-72
2021/03/27 05:58:49;;;;;;;54.47;25.95;;;;;;;6.63;58.54;100864.81;5114778;28;20059;-74
2021/03/27 06:01:14;;;;;;;50.53;25.35;;;;;;;6.72;58.52;100866.28;5114519;28;20031;-72
2021/03/27 06:04:13;;;;;;;51.75;25.63;;;;;;;6.85;58.39;100867.56;5114509;28;20054;-72
2021/03/27 06:07:17;;;;;;;52.10;25.27;;;;;;;6.77;57.60;100835.19;5114444;28;20031;-72
2021/03/27 06:09:50;;;;;;;45.40;24.00;;;;;;;7.07;56.97;100857.09;5069013;28;20047;-71
2021/03/27 06:12:35;;;;;;;47.35;23.13;;;;;;;7.25;56.93;100856.41;5096596;28;20444;-73
2021/03/27 06:15:19;;;;;;;47.78;23.77;;;;;;;7.37;56.62;100863.06;5113950;28;20180;-69
2021/03/27 06:18:11;;;;;;;47.85;23.48;;;;;;;7.43;55.94;100868.13;5114191;28;20063;-70
2021/03/27 06:21:05;;;;;;;44.08;21.67;;;;;;;7.67;55.34;100869.00;5114444;28;20036;-69
2021/03/27 06:24:04;;;;;;;48.67;22.85;;;;;;;7.83;55.06;100861.31;5114612;28;20125;-70
2021/03/27 06:26:48;;;;;;;42.38;21.58;;;;;;;7.96;54.49;100863.41;5096557;28;20043;-69
2021/03/27 06:29:50;;;;;;;46.35;22.10;;;;;;;8.16;53.65;100853.78;5112932;28;20031;-70
2021/03/27 06:32:34;;;;;;;42.78;21.17;;;;;;;8.24;53.44;100859.66;5113935;28;20039;-70
2021/03/27 06:35:27;;;;;;;45.15;20.73;;;;;;;8.37;53.29;100847.59;5113876;28;20028;-72
2021/03/27 06:38:11;;;;;;;46.25;21.50;;;;;;;8.52;52.36;100844.31;5113918;28;20039;-74
2021/03/27 06:41:01;;;;;;;46.83;21.92;;;;;;;8.17;52.47;100779.31;5113691;28;20390;-71
2021/03/27 06:43:35;;;;;;;43.35;21.98;;;;;;;8.73;52.24;100845.19;5113598;28;20030;-71
2021/03/27 06:46:15;;;;;;;45.60;22.00;;;;;;;8.96;51.24;100832.66;5113408;28;20067;-72
2021/03/27 06:49:25;;;;;;;39.42;20.90;;;;;;;9.20;50.85;100836.03;5114035;28;20027;-71
2021/03/27 06:52:19;;;;;;;44.10;20.45;;;;;;;9.36;50.50;100842.38;5113836;28;20023;-69
2021/03/27 06:54:50;;;;;;;;;;;;;;;9.43;50.25;100834.03;5114152;28;20024;-69
2021/03/27 06:57:49;;;;;;;41.00;20.80;;;;;;;9.54;49.93;100833.53;5113431;28;20350;-70
2021/03/27 07:00:41;;;;;;;42.05;20.63;;;;;;;9.75;49.67;100835.22;5095277;28;20032;-71
2021/03/27 07:03:37;;;;;;;39.50;21.00;;;;;;;9.73;49.30;100834.41;5113149;28;20024;-73
2021/03/27 07:06:30;;;;;;;41.47;21.52;;;;;;;9.54;50.04;100801.59;5095685;28;20039;-70
2021/03/27 07:09:07;;;;;;;40.67;21.00;;;;;;;9.50;50.41;100831.97;5113684;28;20035;-70
2021/03/27 07:12:10;;;;;;;39.10;20.50;;;;;;;9.73;50.33;100829.09;5113261;28;20110;-71
2021/03/27 07:14:54;;;;;;;44.65;21.85;;;;;;;9.89;50.40;100828.38;5113469;28;20024;-71
2021/03/27 07:17:38;;;;;;;42.15;21.38;;;;;;;9.85;50.05;100805.47;5112908;28;20051;-69
2021/03/27 07:20:26;;;;;;;38.97;20.63;;;;;;;9.86;50.30;100807.19;5113144;28;20077;-69
2021/03/27 07:23:15;;;;;;;40.53;20.17;;;;;;;10.06;50.48;100823.09;5113367;28;20034;-70
2021/03/27 07:25:46;;;;;;;38.80;19.85;;;;;;;10.12;50.29;100814.75;5113217;28;20035;-69
2021/03/27 07:28:29;;;;;;;45.88;21.73;;;;;;;10.26;50.10;100817.66;5113052;28;20034;-70
2021/03/27 07:31:14;;;;;;;40.40;20.27;;;;;;;10.32;50.06;100821.81;5113317;28;20034;-71
2021/03/27 07:33:45;;;;;;;39.58;19.77;;;;;;;10.41;50.15;100820.47;5113260;28;20129;-71
2021/03/27 07:36:29;;;;;;;37.03;19.98;;;;;;;10.50;50.08;100823.53;5112455;28;20028;-71
2021/03/27 07:39:31;;;;;;;41.75;20.23;;;;;;;10.51;49.53;100795.06;5113223;28;20085;-69
2021/03/27 07:42:24;;;;;;;39.92;20.38;;;;;;;10.86;49.24;100820.78;5116500;28;20042;-69
2021/03/27 07:45:19;;;;;;;36.42;18.80;;;;;;;10.97;48.57;100812.22;5117103;28;20032;-76
2021/03/27 07:48:06;;;;;;;37.40;18.27;;;;;;;11.16;48.46;100814.78;5116537;28;20054;-77
2021/03/27 07:50:42;;;;;;;40.60;19.30;;;;;;;11.15;48.63;100821.06;5116976;28;20474;-77
2021/03/27 07:53:22;;;;;;;33.92;18.55;;;;;;;11.36;48.13;100827.91;5117090;28;20032;-73
2021/03/27 07:56:08;;;;;;;34.40;17.42;;;;;;;11.39;48.15;100824.22;5116945;28;20031;-76
2021/03/27 07:58:56;;;;;;;35.85;19.55;;;;;;;11.28;48.17;100803.44;5116854;28;20024;-75
2021/03/27 08:01:56;;;;;;;33.40;16.85;;;;;;;11.59;47.52;100820.47;5116627;28;20482;-74
2021/03/27 08:04:27;;;;;;;31.92;15.77;;;;;;;11.66;47.44;100819.16;5116757;28;20107;-75
2021/03/27 08:07:03;;;;;;;35.65;16.80;;;;;;;11.58;47.32;100802.69;5116939;28;20023;-73
2021/03/27 08:09:38;;;;;;;35.10;16.42;;;;;;;11.73;47.45;100828.56;5116538;28;20031;-75
2021/03/27 08:12:31;;;;;;;32.40;15.90;;;;;;;11.83;47.43;100829.81;5098293;28;20031;-76
2021/03/27 08:15:21;;;;;;;31.25;17.05;;;;;;;11.89;47.42;100826.81;5098397;28;20038;-72
2021/03/27 08:17:55;;;;;;;33.38;16.98;;;;;;;12.03;46.71;100824.19;5116781;28;20060;-69
2021/03/27 08:20:27;;;;;;;34.63;16.73;;;;;;;12.02;46.60;100802.91;5118391;28;20027;-70
2021/03/27 08:23:29;;;;;;;30.92;15.23;;;;;;;12.17;46.98;100814.53;5116520;28;20042;-70
2021/03/27 08:26:06;;;;;;;30.80;16.02;;;;;;;12.27;46.82;100813.03;5116361;28;20032;-71
2021/03/27 08:28:34;;;;;;;36.25;16.77;;;;;;;12.41;46.60;100815.75;5116093;28;20035;-72
2021/03/27 08:31:50;;;;;;;29.60;15.45;;;;;;;12.45;46.48;100793.25;5114523;28;20024;-75
2021/03/27 08:34:53;;;;;;;32.10;15.77;;;;;;;12.54;46.74;100808.72;5087071;28;20036;-73
2021/03/27 08:37:37;;;;;;;30.88;15.52;;;;;;;12.67;46.47;100802.66;5113087;28;20028;-73
2021/03/27 08:40:44;;;;;;;25.63;14.93;;;;;;;12.81;46.41;100810.69;5115355;28;20040;-76
2021/03/27 08:43:45;;;;;;;22.52;10.98;;;;;;;12.90;45.48;100807.47;5109728;28;20043;-71
2021/03/27 08:46:32;;;;;;;22.70;11.15;;;;;;;12.95;45.32;100804.53;5114567;28;20549;-68
2021/03/27 08:49:24;;;;;;;22.33;11.25;;;;;;;12.91;45.29;100795.81;5096440;28;20039;-68
2021/03/27 08:52:02;;;;;;;20.63;10.50;;;;;;;13.01;45.36;100802.31;5111804;28;20030;-69
2021/03/27 08:54:45;;;;;;;24.38;12.27;;;;;;;13.12;45.51;100794.50;5115012;28;20398;-70
2021/03/27 08:57:29;;;;;;;25.33;12.27;;;;;;;13.26;45.34;100792.81;5115226;28;20106;-69
2021/03/27 09:00:13;;;;;;;20.05;10.07;;;;;;;13.37;45.26;100792.97;5115392;28;20114;-70
2021/03/27 09:02:49;;;;;;;23.65;11.23;;;;;;;13.15;45.32;100748.75;5114477;28;20356;-69
2021/03/27 09:05:18;;;;;;;23.27;10.95;;;;;;;13.46;45.25;100782.53;5114675;28;20039;-70
2021/03/27 09:07:46;;;;;;;20.10;10.65;;;;;;;13.51;45.40;100784.94;5114070;28;20466;-76
2021/03/27 09:10:21;;;;;;;23.65;11.75;;;;;;;13.53;45.05;100793.75;5115241;28;20028;-75
2021/03/27 09:12:56;;;;;;;20.27;11.48;;;;;;;13.56;45.14;100788.16;5114863;28;20597;-74
2021/03/27 09:15:49;;;;;;;22.13;9.95;;;;;;;13.51;44.83;100752.78;5114735;28;20054;-75
2021/03/27 09:18:46;;;;;;;16.83;9.45;;;;;;;13.70;45.09;100779.22;5095883;28;20075;-79
2021/03/27 09:21:18;;;;;;;21.17;11.40;;;;;;;13.79;44.72;100785.81;5114560;28;20031;-78
2021/03/27 09:23:46;;;;;;;16.65;9.90;;;;;;;13.97;43.96;100779.25;5096642;28;20032;-70
2021/03/27 09:26:49;;;;;;;19.85;9.98;;;;;;;14.06;43.07;100781.31;5114604;28;20555;-70
2021/03/27 09:29:32;;;;;;;19.23;10.15;;;;;;;14.16;42.75;100771.69;5114746;28;20061;-70
2021/03/27 09:32:17;;;;;;;17.83;10.17;;;;;;;14.26;42.63;100778.19;5114094;28;20036;-72
2021/03/27 09:35:16;;;;;;;21.05;10.02;;;;;;;14.30;42.30;100774.34;5114478;28;20431;-73
2021/03/27 09:37:50;;;;;;;19.45;10.02;;;;;;;14.33;42.27;100767.91;5113462;28;20036;-73
2021/03/27 09:40:29;;;;;;;19.75;10.15;;;;;;;14.32;42.09;100750.94;5114576;28;20478;-77
2021/03/27 09:43:31;;;;;;;17.80;10.50;;;;;;;14.46;42.16;100760.75;5113984;28;20035;-73
2021/03/27 09:46:15;;;;;;;21.60;10.88;;;;;;;14.28;41.99;100710.97;5114277;28;20118;-72
2021/03/27 09:49:11;;;;;;;22.27;11.07;;;;;;;14.64;41.32;100753.25;5113181;28;20039;-72
2021/03/27 09:52:12;;;;;;;21.02;10.40;;;;;;;14.70;42.15;100760.91;5112945;28;20035;-72
2021/03/27 09:54:37;;;;;;;22.45;10.80;;;;;;;14.93;41.17;100761.97;5113012;28;20046;-69
2021/03/27 09:57:18;;;;;;;22.05;10.52;;;;;;;14.93;41.37;100758.44;5113959;28;20102;-70
2021/03/27 09:59:47;;;;;;;16.63;9.38;;;;;;;15.02;41.21;100758.66;5114179;28;20466;-72
2021/03/27 10:02:44;;;;;;;22.33;10.25;;;;;;;15.02;41.48;100749.72;5113530;28;20036;-71
2021/03/27 10:05:40;;;;;;;15.60;9.02;;;;;;;15.07;41.28;100748.44;5110702;28;20097;-71
2021/03/27 10:08:40;;;;;;;16.50;8.77;;;;;;;15.05;40.74;100722.63;5113969;28;20046;-69
2021/03/27 10:11:08;;;;;;;19.00;9.52;;;;;;;15.15;40.68;100739.81;5113799;28;20493;-73
2021/03/27 10:13:55;;;;;;;18.13;10.02;;;;;;;15.09;40.89;100734.91;5113922;28;20032;-68
2021/03/27 10:17:05;;;;;;;19.20;9.70;;;;;;;15.30;40.30;100733.34;5092207;28;20093;-69
2021/03/27 10:19:33;;;;;;;18.35;9.40;;;;;;;15.13;40.79;100704.16;5096421;28;20108;-73
2021/03/27 10:22:17;;;;;;;19.35;10.57;;;;;;;15.31;40.36;100721.63;5095299;28;20118;-70
2021/03/27 10:24:55;;;;;;;23.23;10.27;;;;;;;15.21;40.70;100699.09;5113626;28;20039;-75
2021/03/27 10:27:39;;;;;;;20.08;9.55;;;;;;;15.53;40.73;100734.34;5113909;28;20041;-68
2021/03/27 10:30:28;;;;;;;20.08;9.95;;;;;;;15.62;40.01;100722.09;5113500;28;20477;-71
2021/03/27 10:33:08;;;;;;;19.65;9.85;;;;;;;15.20;39.92;100646.31;5113027;28;20366;-70
2021/03/27 10:35:45;;;;;;;20.23;9.93;;;;;;;15.64;40.10;100712.97;5113340;28;20076;-70
2021/03/27 10:38:14;;;;;;;22.67;9.40;;;;;;;15.55;40.31;100720.84;5116890;28;20024;-68
2021/03/27 10:40:53;;;;;;;20.10;10.07;;;;;;;15.58;40.57;100717.91;5095693;28;20390;-73
2021/03/27 10:43:42;;;;;;;21.23;10.32;;;;;;;15.70;40.31;100708.97;5100819;28;20031;-70
2021/03/27 10:46:40;;;;;;;19.77;10.07;;;;;;;15.76;39.76;100699.59;5113645;28;20048;-70
2021/03/27 10:49:23;;;;;;;20.95;10.13;;;;;;;15.76;39.85;100696.91;5113742;28;20492;-71
2021/03/27 10:52:07;;;;;;;;;;;;;;;15.96;39.69;100698.94;5113749;28;20050;-73
2021/03/27 10:54:39;;;;;;;20.73;10.00;;;;;;;16.02;39.37;100704.72;5113414;28;20358;-72
2021/03/27 10:57:19;;;;;;;21.40;10.73;;;;;;;16.04;39.23;100707.31;5113848;28;20032;-71
2021/03/27 11:00:09;;;;;;;19.75;10.18;;;;;;;16.07;39.46;100700.81;5113847;28;20031;-69
2021/03/27 11:03:12;;;;;;;22.27;11.15;;;;;;;16.19;39.44;100705.25;5122405;28;20027;-72
2021/03/27 11:05:56;;;;;;;22.35;10.80;;;;;;;16.07;39.44;100684.69;5121707;28;20031;-69
2021/03/27 11:08:46;;;;;;;21.67;10.55;;;;;;;16.20;39.32;100691.69;5112977;28;20486;-70
2021/03/27 11:11:34;;;;;;;24.95;10.35;;;;;;;16.36;39.11;100702.13;5096740;28;20498;-73
2021/03/27 11:14:26;;;;;;;26.08;10.75;;;;;;;16.27;38.96;100686.69;5113661;28;20350;-71
2021/03/27 11:17:12;;;;;;;20.33;10.20;;;;;;;16.35;38.77;100704.94;5112527;28;20035;-74
2021/03/27 11:20:00;;;;;;;26.23;10.45;;;;;;;16.40;38.66;100694.66;5112127;28;20051;-75
2021/03/27 11:22:32;;;;;;;19.98;9.32;;;;;;;16.46;38.69;100697.75;5081372;28;20097;-74
2021/03/27 11:25:27;;;;;;;21.25;9.70;;;;;;;16.15;38.47;100648.13;5113326;28;20036;-74
2021/03/27 11:28:31;;;;;;;21.23;9.75;;;;;;;16.57;37.95;100689.69;5113455;28;20382;-74
2021/03/27 11:31:13;;;;;;;;;;;;;;;16.58;38.30;100702.19;5044782;28;20092;-76
2021/03/27 11:34:07;;;;;;;23.65;9.77;;;;;;;16.63;38.16;100698.28;5094933;28;19965;-74
2021/03/27 11:36:45;;;;;;;22.25;10.18;;;;;;;16.64;37.65;100695.47;5113198;28;20031;-74
2021/03/27 11:39:24;;;;;;;21.27;10.32;;;;;;;16.80;37.44;100689.78;5113310;28;20027;-75
2021/03/27 11:42:21;;;;;;;19.38;9.82;;;;;;;16.90;37.56;100685.38;5078244;28;20031;-74
2021/03/27 11:44:53;;;;;;;22.00;10.52;;;;;;;17.02;37.41;100683.53;5095312;28;20031;-75
2021/03/27 11:47:41;;;;;;;20.48;9.68;;;;;;;17.02;37.42;100689.78;5113164;28;20040;-75
2021/03/27 11:50:15;;;;;;;17.58;10.40;;;;;;;17.07;37.89;100679.47;5112936;28;20023;-70
2021/03/27 11:52:50;;;;;;;24.02;10.40;;;;;;;17.10;37.52;100683.78;5113115;28;20030;-72
2021/03/27 11:55:29;;;;;;;19.75;10.40;;;;;;;17.16;37.61;100681.41;5113076;28;20035;-74
2021/03/27 11:58:29;;;;;;;18.40;9.95;;;;;;;17.27;37.35;100666.19;5113288;28;20127;-75
2021/03/27 12:01:01;;;;;;;25.35;10.38;;;;;;;17.23;37.31;100637.78;5112957;28;20063;-74
2021/03/27 12:03:45;;;;;;;16.38;8.95;;;;;;;17.36;37.42;100660.06;5095207;28;20155;-75
2021/03/27 12:06:32;;;;;;;19.70;9.30;;;;;;;17.32;37.35;100658.63;5112931;28;20126;-76
2021/03/27 12:09:07;;;;;;;22.55;9.50;;;;;;;17.32;37.56;100664.00;5105515;28;20027;-76
2021/03/27 12:11:41;;;;;;;17.80;9.40;;;;;;;17.33;37.33;100649.53;5092755;28;20032;-73
2021/03/27 12:14:15;;;;;;;15.18;8.88;;;;;;;17.27;37.62;100641.94;5092971;28;20036;-73
2021/03/27 12:16:57;;;;;;;16.30;8.00;;;;;;;17.42;37.29;100654.19;5092810;28;20033;-73
2021/03/27 12:19:31;;;;;;;17.75;7.60;;;;;;;17.53;36.60;100656.84;5092760;28;20054;-74
2021/03/27 12:22:14;;;;;;;14.05;6.38;;;;;;;17.45;36.74;100641.28;5092702;28;20387;-73
2021/03/27 12:24:48;;;;;;;12.00;6.57;;;;;;;17.57;36.89;100663.72;5092766;28;20028;-73
2021/03/27 12:27:38;;;;;;;11.73;6.32;;;;;;;17.56;36.84;100653.88;5092998;28;20511;-75
2021/03/27 12:30:25;;;;;;;16.92;7.22;;;;;;;17.61;36.92;100658.91;5078121;28;20101;-72